Time;durP1;ratioP1;P1;durP2;ratioP2;P2;SDS_P1;SDS_P2;PMS_P1;PMS_P2;Temp;Humidity;BMP_temperature;BMP_pressure;BME280_temperature;BME280_humidity;BME280_pressure;Samples;Min_cycle;Max_cycle;Signal;HPM_P1;HPM_P2
2020/12/15 00:01:30;;;;;;;45.03;23.02;;;;;;;1.16;91.85;100417.11;1775278;81;21165;-79
2020/12/15 00:04:37;;;;;;;37.77;18.30;;;;;;;1.16;91.82;100426.53;1774003;81;21327;-80
2020/12/15 00:07:44;;;;;;;64.75;26.65;;;;;;;1.21;91.91;100424.36;1775049;81;21875;-79
2020/12/15 00:10:50;;;;;;;51.23;22.55;;;;;;;1.19;91.74;100418.23;1775173;81;21275;-79
2020/12/15 00:13:56;;;;;;;49.30;21.65;;;;;;;1.17;91.67;100417.97;1774683;81;21351;-79
2020/12/15 00:17:06;;;;;;;43.95;20.50;;;;;;;1.14;91.65;100419.07;1775220;81;21468;-79
2020/12/15 00:20:13;;;;;;;49.73;21.80;;;;;;;1.10;91.70;100412.19;1775350;81;21220;-79
2020/12/15 00:23:19;;;;;;;35.80;16.93;;;;;;;1.11;91.75;100407.16;1775100;81;21196;-80
2020/12/15 00:26:25;;;;;;;46.28;21.52;;;;;;;1.05;91.70;100401.38;1775294;81;21176;-79
2020/12/15 00:29:31;;;;;;;46.37;21.55;;;;;;;1.04;91.78;100407.26;1775205;81;21294;-79
2020/12/15 00:32:37;;;;;;;44.42;20.97;;;;;;;1.04;91.94;100405.91;1772955;79;21318;-79
2020/12/15 00:35:42;;;;;;;57.50;28.55;;;;;;;1.08;91.99;100413.25;1775279;81;21296;-79
2020/12/15 00:38:48;;;;;;;52.25;24.12;;;;;;;1.10;92.01;100418.06;1775456;81;21870;-79
2020/12/15 00:41:57;;;;;;;45.45;20.68;;;;;;;1.14;92.09;100417.72;1774829;81;21838;-79
2020/12/15 00:45:03;;;;;;;;;;;;;;;1.19;92.08;100423.63;1776560;81;21220;-79
2020/12/15 00:48:10;;;;;;;50.23;20.72;;;;;;;1.23;91.98;100418.39;1774992;81;20219;-79
2020/12/15 00:51:17;;;;;;;38.42;17.85;;;;;;;1.26;91.86;100428.92;1774929;81;21177;-79
2020/12/15 00:54:24;;;;;;;52.25;24.60;;;;;;;1.26;91.69;100424.88;1773177;81;21204;-79
2020/12/15 00:57:29;;;;;;;50.25;22.48;;;;;;;1.24;91.49;100424.14;1773566;81;21311;-80
2020/12/15 01:00:36;;;;;;;51.20;23.83;;;;;;;1.24;91.44;100420.10;1775159;81;21184;-79
2020/12/15 01:03:42;;;;;;;44.05;21.75;;;;;;;1.23;91.38;100410.30;1774922;81;21181;-80
2020/12/15 01:06:47;;;;;;;54.95;28.23;;;;;;;1.21;91.30;100410.03;1774893;81;21296;-79
2020/12/15 01:09:54;;;;;;;52.53;22.65;;;;;;;1.19;91.29;100400.72;1774675;81;21720;-79
2020/12/15 01:13:03;;;;;;;50.48;25.15;;;;;;;1.10;91.23;100394.67;1736962;82;21372;-78
2020/12/15 01:16:27;;;;;;;48.17;20.90;;;;;;;1.03;91.37;100390.70;1738356;82;21255;-79
2020/12/15 01:19:33;;;;;;;48.10;22.52;;;;;;;1.00;91.61;100384.21;1738108;82;21348;-79
2020/12/15 01:22:39;;;;;;;57.80;23.60;;;;;;;0.93;91.75;100393.70;1738661;82;21175;-79
2020/12/15 01:25:47;;;;;;;51.08;22.70;;;;;;;0.90;92.01;100393.95;1737090;82;21567;-79
2020/12/15 01:28:53;;;;;;;61.95;26.85;;;;;;;0.91;92.29;100395.66;1737154;82;21257;-79
2020/12/15 01:31:59;;;;;;;53.60;22.10;;;;;;;0.88;92.46;100395.88;1736982;82;21313;-79
2020/12/15 01:35:05;;;;;;;48.23;23.62;;;;;;;0.91;92.67;100401.05;1736907;82;21851;-80
2020/12/15 01:38:10;;;;;;;53.42;23.57;;;;;;;0.89;92.76;100398.94;1737227;82;21332;-79
2020/12/15 01:41:15;;;;;;;56.08;22.22;;;;;;;0.91;92.92;100399.70;1738546;82;21312;-80
2020/12/15 01:44:21;;;;;;;58.83;25.68;;;;;;;0.91;92.96;100411.33;1738471;82;21266;-79
2020/12/15 01:47:27;;;;;;;54.70;23.85;;;;;;;0.89;92.97;100416.44;1738447;82;21305;-80
2020/12/15 01:50:33;;;;;;;53.68;24.55;;;;;;;0.91;93.08;100410.47;1737741;82;21866;-80
2020/12/15 01:53:40;;;;;;;58.17;25.75;;;;;;;0.86;93.09;100398.69;1738180;82;21321;-79
2020/12/15 01:56:47;;;;;;;54.98;26.23;;;;;;;0.85;93.14;100401.47;1738480;82;21234;-80
2020/12/15 01:59:54;;;;;;;60.73;26.20;;;;;;;0.86;93.25;100400.52;1736013;82;21250;-80
2020/12/15 02:03:05;;;;;;;62.20;26.77;;;;;;;0.91;93.39;100407.29;1738444;82;21310;-79
2020/12/15 02:06:12;;;;;;;56.80;24.92;;;;;;;0.94;93.39;100411.12;1716302;82;21238;-80
2020/12/15 02:09:19;;;;;;;53.65;22.32;;;;;;;0.96;93.34;100409.64;1738392;82;21191;-80
2020/12/15 02:12:26;;;;;;;59.48;25.32;;;;;;;0.93;93.23;100408.52;1738468;82;21313;-80
2020/12/15 02:15:32;;;;;;;51.08;20.60;;;;;;;0.89;93.16;100402.97;1737161;82;21305;-80
2020/12/15 02:18:38;;;;;;;49.75;23.75;;;;;;;0.91;93.24;100402.39;1738625;82;21301;-80
2020/12/15 02:22:02;;;;;;;53.78;22.15;;;;;;;0.87;93.16;100400.89;1737474;82;21364;-80
2020/12/15 02:25:10;;;;;;;59.98;25.20;;;;;;;0.87;93.25;100404.94;1738128;82;21241;-80
2020/12/15 02:28:16;;;;;;;53.87;22.52;;;;;;;0.88;93.34;100409.34;1738522;82;21309;-80
2020/12/15 02:31:20;;;;;;;49.67;23.60;;;;;;;0.89;93.40;100418.64;1738505;82;21852;-79
2020/12/15 02:34:26;;;;;;;58.10;25.72;;;;;;;0.92;93.42;100420.27;1735681;81;21345;-80
2020/12/15 02:37:31;;;;;;;49.60;24.25;;;;;;;0.93;93.37;100417.94;1732478;83;21373;-80
2020/12/15 02:40:39;;;;;;;49.45;22.27;;;;;;;0.95;93.40;100420.05;1733222;83;21301;-80
2020/12/15 02:43:47;;;;;;;53.30;24.07;;;;;;;0.96;93.35;100419.93;1731561;83;21301;-80
2020/12/15 02:46:52;;;;;;;63.28;27.93;;;;;;;0.97;93.29;100425.69;1732244;83;21854;-80
2020/12/15 02:49:59;;;;;;;51.92;22.32;;;;;;;0.97;93.17;100427.03;1733278;83;21947;-80
2020/12/15 02:53:05;;;;;;;49.13;24.02;;;;;;;0.97;93.12;100422.13;1733169;83;21670;-80
2020/12/15 02:56:11;;;;;;;48.40;23.90;;;;;;;0.96;93.05;100423.97;1732660;83;21199;-80
2020/12/15 02:59:18;;;;;;;51.85;24.27;;;;;;;0.94;92.97;100427.73;1733322;83;21358;-80
2020/12/15 03:02:27;;;;;;;52.40;24.95;;;;;;;0.93;92.90;100436.80;1733204;83;21356;-80
2020/12/15 03:05:32;;;;;;;51.63;25.23;;;;;;;0.95;92.94;100436.21;1733270;83;21345;-80
2020/12/15 03:08:39;;;;;;;44.33;20.97;;;;;;;0.99;92.94;100444.45;1733351;83;21710;-80
2020/12/15 03:11:46;;;;;;;41.18;19.17;;;;;;;0.95;92.82;100439.77;1733199;83;21317;-80
2020/12/15 03:14:52;;;;;;;45.75;22.22;;;;;;;0.96;92.80;100444.66;1733129;83;21948;-80
2020/12/15 03:17:59;;;;;;;47.15;21.85;;;;;;;0.96;92.73;100440.63;1733327;83;21754;-80
2020/12/15 03:21:07;;;;;;;51.10;22.22;;;;;;;0.95;92.72;100441.11;1733221;83;21353;-80
2020/12/15 03:24:12;;;;;;;47.00;24.15;;;;;;;0.92;92.64;100433.24;1731914;83;21298;-80
2020/12/15 03:27:17;;;;;;;47.30;22.32;;;;;;;0.92;92.69;100442.67;1732335;83;21345;-80
2020/12/15 03:30:25;;;;;;;38.85;18.70;;;;;;;0.94;92.72;100442.55;1713277;83;21306;-80
2020/12/15 03:33:31;;;;;;;42.75;21.95;;;;;;;0.90;92.70;100444.63;1733372;83;21243;-80
2020/12/15 03:36:38;;;;;;;51.73;24.02;;;;;;;0.92;92.77;100451.23;1731721;81;21949;-80
2020/12/15 03:39:45;;;;;;;42.80;20.55;;;;;;;0.92;92.77;100458.83;1731971;83;21297;-80
2020/12/15 03:43:10;;;;;;;38.75;18.65;;;;;;;0.94;92.79;100460.95;1733205;83;21797;-80
2020/12/15 03:46:18;;;;;;;58.63;27.60;;;;;;;0.97;92.79;100462.05;1731777;81;21907;-80
2020/12/15 03:49:14;;;;;;;49.95;25.23;;;;;;;0.94;92.68;100469.48;1733343;83;21293;-79
2020/12/15 03:52:21;;;;;;;39.78;18.05;;;;;;;0.96;92.74;100481.02;1732935;83;21345;-80
2020/12/15 03:55:29;;;;;;;49.42;23.42;;;;;;;0.95;92.69;100481.52;1732918;83;21329;-80
2020/12/15 03:58:36;;;;;;;45.60;19.55;;;;;;;0.92;92.63;100476.83;1733131;83;21863;-80
2020/12/15 04:01:42;;;;;;;47.60;22.77;;;;;;;0.93;92.65;100484.78;1732739;83;21214;-80
2020/12/15 04:04:48;;;;;;;55.65;27.17;;;;;;;0.96;92.68;100482.38;1732779;83;21318;-79
2020/12/15 04:07:54;;;;;;;51.28;24.25;;;;;;;0.97;92.66;100481.39;1731937;83;21349;-80
2020/12/15 04:10:59;;;;;;;49.73;23.80;;;;;;;0.96;92.57;100483.72;1732970;83;21317;-79
2020/12/15 04:14:08;;;;;;;43.48;21.80;;;;;;;0.96;92.52;100489.11;1732885;83;21717;-80
2020/12/15 04:17:12;;;;;;;49.80;23.77;;;;;;;0.97;92.56;100493.52;1732390;83;21253;-79
2020/12/15 04:20:19;;;;;;;43.13;21.20;;;;;;;0.96;92.54;100502.08;1732808;83;21369;-80
2020/12/15 04:23:25;;;;;;;55.73;29.60;;;;;;;1.01;92.57;100499.06;1732470;83;21404;-80
2020/12/15 04:26:32;;;;;;;52.85;26.23;;;;;;;1.01;92.48;100489.62;1733380;83;21338;-79
2020/12/15 04:29:39;;;;;;;40.92;22.10;;;;;;;1.03;92.42;100489.02;1731983;83;22654;-80
2020/12/15 04:32:51;;;;;;;40.48;21.10;;;;;;;1.01;92.32;100485.59;1733206;83;21349;-80
2020/12/15 04:35:59;;;;;;;40.00;20.40;;;;;;;1.01;92.29;100499.06;1732730;81;21786;-79
2020/12/15 04:39:05;;;;;;;38.95;19.07;;;;;;;0.99;92.18;100498.33;1732083;83;21897;-79
2020/12/15 04:42:14;;;;;;;36.50;18.12;;;;;;;0.98;92.18;100499.27;1733410;83;21318;-80
2020/12/15 04:45:20;;;;;;;45.75;24.20;;;;;;;0.98;92.24;100499.27;1733277;83;21317;-80
2020/12/15 04:48:31;;;;;;;41.42;20.82;;;;;;;1.00;92.25;100501.38;1731816;83;21357;-80
2020/12/15 04:51:52;;;;;;;40.98;20.68;;;;;;;1.02;92.18;100507.51;1733085;83;21849;-80
2020/12/15 04:55:05;;;;;;;49.40;23.25;;;;;;;1.03;92.12;100513.27;1733152;83;21893;-80
2020/12/15 04:58:10;;;;;;;46.73;24.18;;;;;;;1.02;92.11;100509.71;1732560;83;22661;-80
2020/12/15 05:01:17;;;;;;;33.85;18.12;;;;;;;1.05;92.08;100509.14;1733309;83;21896;-81
2020/12/15 05:04:35;;;;;;;39.13;20.80;;;;;;;1.03;91.96;100520.00;1733254;83;21333;-80
2020/12/15 05:07:48;;;;;;;41.13;20.43;;;;;;;1.02;91.98;100520.98;1732963;83;21345;-80
2020/12/15 05:10:57;;;;;;;41.75;20.92;;;;;;;1.03;91.94;100522.69;1733240;83;21357;-79
2020/12/15 05:14:04;;;;;;;44.70;23.02;;;;;;;1.00;91.88;100533.70;1668012;82;21326;-80
2020/12/15 05:17:11;;;;;;;40.15;20.60;;;;;;;0.96;91.89;100526.33;1733179;83;21313;-79
2020/12/15 05:20:34;;;;;;;42.38;21.25;;;;;;;0.95;91.94;100535.87;1731125;83;21309;-80
2020/12/15 05:23:46;;;;;;;40.12;19.20;;;;;;;0.97;92.08;100540.65;1732563;83;21290;-79
2020/12/15 05:26:53;;;;;;;39.40;21.68;;;;;;;0.98;92.12;100538.33;1717550;83;21194;-80
2020/12/15 05:30:15;;;;;;;39.63;20.25;;;;;;;1.00;92.19;100540.45;1711779;81;21206;-80
2020/12/15 05:33:26;;;;;;;32.63;15.93;;;;;;;1.05;92.22;100544.16;1688014;84;21364;-79
2020/12/15 05:37:06;;;;;;;48.65;23.90;;;;;;;1.03;92.13;100537.51;1749488;81;21784;-80
2020/12/15 05:40:31;;;;;;;40.17;21.05;;;;;;;0.98;92.04;100542.37;1748649;81;21337;-79
2020/12/15 05:43:41;;;;;;;41.20;20.15;;;;;;;0.94;92.06;100536.81;1764553;80;21692;-80
2020/12/15 05:46:54;;;;;;;43.95;21.80;;;;;;;0.90;92.16;100529.95;1762263;80;21306;-80
2020/12/15 05:50:03;;;;;;;34.40;17.80;;;;;;;0.89;92.34;100540.33;1777802;80;21311;-79
2020/12/15 05:53:12;;;;;;;44.90;21.00;;;;;;;0.91;92.48;100540.61;1778239;80;21839;-78
2020/12/15 05:56:28;;;;;;;52.70;22.70;;;;;;;0.90;92.53;100543.42;1772572;79;21351;-80
2020/12/15 05:59:35;;;;;;;42.90;20.92;;;;;;;0.90;92.60;100546.12;1769445;81;21205;-79
2020/12/15 06:02:40;;;;;;;46.50;22.95;;;;;;;0.93;92.69;100545.87;1775854;80;21256;-80
2020/12/15 06:05:49;;;;;;;51.15;25.40;;;;;;;0.94;92.72;100549.83;1754436;80;21195;-80
2020/12/15 06:08:53;;;;;;;53.68;25.65;;;;;;;0.98;92.73;100547.75;1762733;80;21349;-79
2020/12/15 06:12:01;;;;;;;53.50;25.92;;;;;;;1.02;92.74;100539.34;1781210;79;21307;-80
2020/12/15 06:15:06;;;;;;;61.60;27.98;;;;;;;1.09;92.67;100553.26;1763789;80;21346;-79
2020/12/15 06:18:12;;;;;;;55.95;22.10;;;;;;;1.11;92.52;100551.30;1769724;79;21291;-80
2020/12/15 06:21:18;;;;;;;41.85;20.17;;;;;;;1.14;92.38;100544.36;1779316;80;21239;-80
2020/12/15 06:24:39;;;;;;;49.35;23.95;;;;;;;1.09;92.13;100545.17;1764370;80;21498;-80
2020/12/15 06:27:45;;;;;;;39.67;20.05;;;;;;;1.00;92.06;100545.83;1767115;79;21319;-80
2020/12/15 06:30:51;;;;;;;57.60;26.50;;;;;;;0.97;92.18;100542.86;1779157;79;21847;-80
2020/12/15 06:34:02;;;;;;;54.67;26.25;;;;;;;1.00;92.31;100543.14;1782360;80;21848;-80
2020/12/15 06:37:08;;;;;;;65.22;29.45;;;;;;;1.08;92.44;100547.95;1760416;80;21843;-79
2020/12/15 06:40:14;;;;;;;58.63;26.12;;;;;;;1.12;92.40;100562.45;1773749;79;21291;-79
2020/12/15 06:43:34;;;;;;;46.55;22.35;;;;;;;1.11;92.18;100567.47;1775916;79;21140;-79
2020/12/15 06:46:40;;;;;;;70.75;30.95;;;;;;;1.09;92.07;100579.34;1775358;79;21636;-80
2020/12/15 06:49:46;;;;;;;53.92;26.90;;;;;;;1.09;92.05;100573.95;1777311;79;21188;-80
2020/12/15 06:52:52;;;;;;;63.98;30.00;;;;;;;1.11;92.08;100578.73;1780710;79;21279;-80
2020/12/15 06:56:17;;;;;;;74.10;33.38;;;;;;;1.08;91.97;100577.10;1731626;82;21307;-79
2020/12/15 06:59:23;;;;;;;58.63;27.80;;;;;;;1.09;91.97;100576.65;1701769;82;21158;-80
2020/12/15 07:02:31;;;;;;;65.72;29.50;;;;;;;1.12;91.99;100585.34;1774052;80;21272;-79
2020/12/15 07:05:37;;;;;;;49.03;22.22;;;;;;;1.14;91.93;100586.61;1720768;82;21334;-79
2020/12/15 07:08:41;;;;;;;60.98;28.60;;;;;;;1.15;91.93;100592.37;1728885;82;21785;-79
2020/12/15 07:11:48;;;;;;;59.40;27.52;;;;;;;1.14;91.86;100592.00;1779157;79;21208;-80
2020/12/15 07:14:57;;;;;;;72.37;33.20;;;;;;;1.16;91.83;100593.59;1774977;79;21299;-80
2020/12/15 07:18:05;;;;;;;76.85;33.00;;;;;;;1.17;91.73;100595.31;1763801;79;21181;-80
2020/12/15 07:21:13;;;;;;;60.40;30.27;;;;;;;1.19;91.62;100599.27;1775820;80;21831;-80
2020/12/15 07:24:18;;;;;;;60.00;28.12;;;;;;;1.14;91.55;100609.02;1727292;79;21275;-80
2020/12/15 07:27:25;;;;;;;70.78;32.05;;;;;;;1.15;91.59;100604.48;1743867;81;21292;-80
2020/12/15 07:30:31;;;;;;;63.38;28.60;;;;;;;1.14;91.60;100606.33;1712683;82;21315;-80
2020/12/15 07:33:38;;;;;;;63.85;30.37;;;;;;;1.16;91.63;100598.12;1735455;81;21249;-79
2020/12/15 07:36:46;;;;;;;63.05;30.60;;;;;;;1.19;91.62;100609.55;1733566;81;21195;-80
2020/12/15 07:39:58;;;;;;;43.40;22.67;;;;;;;1.20;91.56;100608.58;1726532;81;21319;-79
2020/12/15 07:43:16;;;;;;;48.28;24.82;;;;;;;1.19;91.53;100616.78;1729017;80;21784;-80
2020/12/15 07:46:26;;;;;;;62.50;29.37;;;;;;;1.22;91.57;100617.43;1774641;79;21791;-80
2020/12/15 07:49:32;;;;;;;52.78;25.37;;;;;;;1.19;91.42;100609.55;1773193;80;21322;-80
2020/12/15 07:52:44;;;;;;;67.85;31.02;;;;;;;1.23;91.54;100606.16;1769503;79;21830;-80
2020/12/15 07:55:49;;;;;;;61.73;29.75;;;;;;;1.31;91.57;100610.98;1763076;80;21185;-79
2020/12/15 07:58:59;;;;;;;52.27;25.17;;;;;;;1.32;91.32;100607.31;1771252;80;21345;-79
2020/12/15 08:02:05;;;;;;;55.98;26.55;;;;;;;1.33;91.25;100618.49;1770413;80;21271;-80
2020/12/15 08:05:19;;;;;;;55.83;26.87;;;;;;;1.37;91.19;100622.70;1767948;79;21218;-80
2020/12/15 08:08:25;;;;;;;53.08;28.12;;;;;;;1.45;91.14;100622.98;1775816;79;21292;-80
2020/12/15 08:11:40;;;;;;;46.85;23.67;;;;;;;1.46;90.95;100626.08;1771948;80;21346;-79
2020/12/15 08:14:46;;;;;;;49.88;25.12;;;;;;;1.45;90.64;100627.88;1780764;80;21201;-80
2020/12/15 08:17:55;;;;;;;59.25;29.05;;;;;;;1.45;90.55;100618.94;1770958;80;21303;-81
2020/12/15 08:20:59;;;;;;;49.38;25.45;;;;;;;1.50;90.53;100622.16;1768178;80;21236;-80
2020/12/15 08:24:08;;;;;;;46.05;23.52;;;;;;;1.60;90.42;100625.05;1768416;80;21283;-81
2020/12/15 08:27:21;;;;;;;51.90;26.57;;;;;;;1.62;90.05;100622.63;1770794;80;21653;-81
2020/12/15 08:30:27;;;;;;;42.05;23.42;;;;;;;1.65;89.79;100620.22;1775978;80;21173;-80
2020/12/15 08:33:36;;;;;;;47.88;26.42;;;;;;;1.69;89.78;100619.84;1775318;79;21157;-80
2020/12/15 08:36:50;;;;;;;47.40;24.82;;;;;;;1.71;89.54;100612.53;1743358;80;21291;-81
2020/12/15 08:39:55;;;;;;;51.85;29.12;;;;;;;1.75;89.38;100616.73;1774574;80;22193;-80
2020/12/15 08:43:04;;;;;;;50.17;27.22;;;;;;;1.80;89.26;100616.39;1775913;79;21873;-80
2020/12/15 08:46:10;;;;;;;57.43;30.33;;;;;;;1.88;89.23;100607.71;1779784;79;21346;-80
2020/12/15 08:49:23;;;;;;;54.03;27.37;;;;;;;1.97;89.11;100611.08;1743207;80;21373;-80
2020/12/15 08:52:29;;;;;;;51.73;26.20;;;;;;;2.02;88.81;100608.89;1774415;80;21274;-80
2020/12/15 08:55:36;;;;;;;47.30;23.62;;;;;;;2.07;88.50;100601.34;1786071;80;21326;-80
2020/12/15 08:58:42;;;;;;;42.80;23.10;;;;;;;2.08;88.03;100599.51;1771605;80;21307;-80
2020/12/15 09:01:49;;;;;;;48.80;24.43;;;;;;;2.12;87.86;100595.58;1765341;80;21298;-80
2020/12/15 09:04:55;;;;;;;38.40;23.00;;;;;;;2.12;87.69;100596.47;1762949;80;21840;-82
2020/12/15 09:08:12;;;;;;;35.55;21.30;;;;;;;2.13;87.32;100591.92;1768482;80;21216;-80
2020/12/15 09:11:21;;;;;;;45.23;23.60;;;;;;;2.11;87.24;100600.11;1769285;80;21793;-81
2020/12/15 09:14:27;;;;;;;59.23;29.05;;;;;;;2.12;87.12;100608.61;1771457;80;21801;-81
2020/12/15 09:17:32;;;;;;;46.33;25.35;;;;;;;2.08;87.10;100607.61;1772913;80;21250;-80
2020/12/15 09:20:40;;;;;;;52.45;25.85;;;;;;;2.10;87.15;100599.75;1777907;80;21680;-79
2020/12/15 09:23:46;;;;;;;56.05;27.73;;;;;;;2.09;87.11;100596.69;1770224;80;21224;-80
2020/12/15 09:26:54;;;;;;;64.90;30.80;;;;;;;2.07;86.97;100605.39;1767843;80;21148;-79
2020/12/15 09:30:02;;;;;;;57.40;26.65;;;;;;;2.10;86.94;100596.19;1765403;79;21366;-80
2020/12/15 09:33:10;;;;;;;58.70;27.13;;;;;;;2.14;86.97;100599.90;1780487;79;21849;-80
2020/12/15 09:36:24;;;;;;;56.73;27.73;;;;;;;2.15;86.82;100596.70;1773146;80;21830;-81
2020/12/15 09:39:35;;;;;;;55.38;27.67;;;;;;;2.15;86.81;100592.16;1779192;79;21165;-80
2020/12/15 09:42:53;;;;;;;66.28;29.75;;;;;;;2.19;86.51;100596.36;1772064;79;21189;-81
2020/12/15 09:45:58;;;;;;;53.63;27.37;;;;;;;2.19;86.60;100604.45;1779166;80;21407;-80
2020/12/15 09:49:06;;;;;;;54.18;27.37;;;;;;;2.26;86.56;100597.63;1769593;80;21827;-80
2020/12/15 09:52:14;;;;;;;53.15;24.40;;;;;;;2.33;86.29;100606.11;1772795;80;21319;-80
2020/12/15 09:55:20;;;;;;;46.53;22.90;;;;;;;2.32;85.89;100595.44;1775771;80;21156;-80
2020/12/15 09:58:28;;;;;;;45.35;24.12;;;;;;;2.28;85.91;100588.91;1775149;79;21189;-80
2020/12/15 10:01:39;;;;;;;56.25;25.40;;;;;;;2.27;86.07;100589.91;1773329;80;21319;-80
2020/12/15 10:04:44;;;;;;;62.95;30.35;;;;;;;2.27;86.05;100588.55;1771176;80;21286;-79
2020/12/15 10:07:50;;;;;;;55.55;25.60;;;;;;;2.30;86.26;100580.69;1778208;80;21144;-82
2020/12/15 10:10:55;;;;;;;57.03;27.82;;;;;;;2.36;86.20;100580.73;1763349;80;21185;-80
2020/12/15 10:14:02;;;;;;;62.08;29.32;;;;;;;2.37;85.87;100571.66;1767978;80;21929;-80
2020/12/15 10:17:09;;;;;;;77.17;32.93;;;;;;;2.30;85.52;100574.80;1755503;80;21302;-81
2020/12/15 10:20:15;;;;;;;78.72;29.20;;;;;;;2.33;85.87;100575.56;1764208;80;21838;-80
2020/12/15 10:23:22;;;;;;;104.25;32.33;;;;;;;2.39;86.03;100564.28;1760069;81;21843;-80
2020/12/15 10:26:31;;;;;;;87.50;31.40;;;;;;;2.42;85.90;100580.26;1767039;81;21173;-80
2020/12/15 10:29:37;;;;;;;79.70;29.77;;;;;;;2.43;85.56;100561.73;1742025;81;21344;-79
2020/12/15 10:32:41;;;;;;;69.92;29.85;;;;;;;2.44;85.23;100560.73;1759876;80;21279;-80
2020/12/15 10:35:47;;;;;;;77.32;29.23;;;;;;;2.43;84.97;100556.33;1789837;79;21200;-80
2020/12/15 10:38:53;;;;;;;63.70;26.75;;;;;;;2.39;84.73;100563.79;1766439;80;21193;-80
2020/12/15 10:42:01;;;;;;;59.38;26.48;;;;;;;2.32;84.82;100554.45;1770408;80;21362;-80
2020/12/15 10:45:07;;;;;;;55.78;23.92;;;;;;;2.29;85.03;100559.59;1690530;83;21247;-80
2020/12/15 10:48:15;;;;;;;57.23;25.20;;;;;;;2.28;85.19;100570.02;1686598;83;21246;-79
2020/12/15 10:51:21;;;;;;;54.05;23.75;;;;;;;2.32;85.25;100571.15;1687101;83;21212;-80
2020/12/15 10:54:27;;;;;;;57.60;25.70;;;;;;;2.37;85.01;100574.35;1690669;83;21380;-80
2020/12/15 10:57:36;;;;;;;50.40;24.80;;;;;;;2.37;84.68;100574.35;1705172;83;21303;-81
2020/12/15 11:00:45;;;;;;;53.63;26.82;;;;;;;2.35;84.89;100566.35;1695594;83;21525;-81
2020/12/15 11:03:52;;;;;;;61.98;27.17;;;;;;;2.37;85.15;100567.11;1694981;83;21314;-82
2020/12/15 11:06:57;;;;;;;43.80;21.33;;;;;;;2.42;85.13;100563.57;1696769;83;21330;-81
2020/12/15 11:10:03;;;;;;;51.58;26.02;;;;;;;2.53;85.22;100570.83;1696617;83;22367;-79
2020/12/15 11:13:10;;;;;;;60.28;29.35;;;;;;;2.54;84.76;100579.30;1694046;82;21340;-79
2020/12/15 11:16:17;;;;;;;82.78;38.30;;;;;;;2.56;84.26;100580.91;1697303;83;21212;-82
2020/12/15 11:19:23;;;;;;;80.42;37.83;;;;;;;2.56;83.82;100581.41;1690911;83;21857;-80
2020/12/15 11:22:29;;;;;;;77.85;41.48;;;;;;;2.57;83.58;100575.02;1704607;83;21327;-80
2020/12/15 11:25:34;;;;;;;43.68;23.38;;;;;;;2.55;83.01;100585.95;1698887;83;21278;-80
2020/12/15 11:28:40;;;;;;;50.30;24.20;;;;;;;2.55;82.92;100580.55;1700156;83;21335;-80
2020/12/15 11:31:46;;;;;;;38.15;20.77;;;;;;;2.55;82.70;100583.74;1691968;83;21213;-79
2020/12/15 11:34:53;;;;;;;56.90;28.95;;;;;;;2.51;82.40;100578.20;1693664;82;21542;-81
2020/12/15 11:38:00;;;;;;;42.50;25.25;;;;;;;2.49;82.62;100586.89;1693750;82;21330;-80
2020/12/15 11:41:07;;;;;;;47.30;25.57;;;;;;;2.50;82.75;100583.23;1692290;82;21320;-80
2020/12/15 11:44:12;;;;;;;48.00;28.05;;;;;;;2.51;83.22;100578.20;1697375;83;21256;-79
2020/12/15 11:47:27;;;;;;;41.80;24.60;;;;;;;2.55;83.32;100581.90;1713773;82;21300;-78
2020/12/15 11:50:35;;;;;;;44.75;27.30;;;;;;;2.53;83.21;100580.28;1777743;79;21818;-80
2020/12/15 11:53:40;;;;;;;52.90;29.05;;;;;;;2.51;83.46;100579.55;1769307;80;21335;-80
2020/12/15 11:56:46;;;;;;;47.58;28.45;;;;;;;2.50;83.58;100580.05;1768872;80;21169;-80
2020/12/15 11:59:52;;;;;;;60.73;32.17;;;;;;;2.52;83.71;100593.42;1768654;80;21199;-80
2020/12/15 12:03:00;;;;;;;53.63;30.72;;;;;;;2.52;83.81;100586.67;1775423;80;21314;-80
2020/12/15 12:06:06;;;;;;;72.05;36.68;;;;;;;2.52;83.85;100588.02;1763421;80;21197;-79
2020/12/15 12:09:11;;;;;;;67.17;35.88;;;;;;;2.45;83.85;100602.49;1773480;80;21336;-79
2020/12/15 12:12:18;;;;;;;56.28;32.13;;;;;;;2.41;83.93;100596.09;1762096;80;21178;-81
2020/12/15 12:15:25;;;;;;;64.10;34.40;;;;;;;2.35;84.04;100600.59;1757074;80;21659;-81
2020/12/15 12:18:30;;;;;;;66.12;38.85;;;;;;;2.29;84.31;100607.32;1761953;81;21208;-79
2020/12/15 12:21:40;;;;;;;188.12;108.22;;;;;;;2.28;84.48;100599.72;1765323;79;21698;-79
2020/12/15 12:24:45;;;;;;;69.92;38.48;;;;;;;2.33;84.67;100595.81;1745947;81;21340;-79
2020/12/15 12:27:50;;;;;;;73.95;41.68;;;;;;;2.36;84.64;100597.80;1763957;80;21277;-80
2020/12/15 12:30:58;;;;;;;64.42;34.65;;;;;;;2.35;84.42;100608.69;1764729;80;21351;-80
2020/12/15 12:34:05;;;;;;;58.13;33.13;;;;;;;2.33;84.43;100610.66;1771314;80;21870;-81
2020/12/15 12:37:17;;;;;;;68.95;35.73;;;;;;;2.25;84.53;100605.33;1736821;81;21346;-82
2020/12/15 12:40:23;;;;;;;77.53;40.33;;;;;;;2.18;84.92;100610.84;1767853;80;21241;-80
2020/12/15 12:43:28;;;;;;;70.25;38.88;;;;;;;2.17;85.25;100609.13;1766949;80;21699;-80
2020/12/15 12:46:36;;;;;;;61.95;36.30;;;;;;;2.16;85.34;100619.52;1758425;81;21300;-80
2020/12/15 12:49:42;;;;;;;55.90;31.33;;;;;;;2.15;85.33;100625.90;1766591;79;21198;-79
2020/12/15 12:52:48;;;;;;;62.27;34.48;;;;;;;2.07;85.34;100612.14;1762213;80;21251;-80
2020/12/15 12:56:11;;;;;;;66.17;37.83;;;;;;;2.02;85.49;100621.04;1763850;81;22275;-79
2020/12/15 12:59:14;;;;;;;66.28;37.42;;;;;;;1.99;85.58;100624.84;1763523;80;21970;-79
2020/12/15 13:02:19;;;;;;;70.28;37.33;;;;;;;1.99;85.68;100628.03;1765203;81;21343;-79
2020/12/15 13:05:25;;;;;;;56.80;33.53;;;;;;;1.96;85.72;100628.25;1761364;81;22083;-79
2020/12/15 13:08:31;;;;;;;55.70;32.48;;;;;;;1.92;85.82;100635.70;1768181;80;21300;-80
2020/12/15 13:11:39;;;;;;;48.33;28.32;;;;;;;1.90;85.87;100632.27;1764276;81;21138;-81
2020/12/15 13:14:45;;;;;;;57.17;32.90;;;;;;;1.86;85.86;100638.86;1762416;81;21840;-80
2020/12/15 13:17:50;;;;;;;41.80;24.90;;;;;;;1.82;85.92;100651.33;1754096;81;21355;-80
2020/12/15 13:20:56;;;;;;;41.95;24.43;;;;;;;1.73;85.90;100649.67;1754660;81;21684;-80
2020/12/15 13:24:02;;;;;;;56.63;31.15;;;;;;;1.65;86.17;100658.83;1755006;81;21354;-80
2020/12/15 13:27:08;;;;;;;59.18;32.93;;;;;;;1.60;86.51;100661.00;1754925;81;21832;-80
2020/12/15 13:30:13;;;;;;;58.40;32.05;;;;;;;1.59;86.83;100658.39;1755107;81;21359;-80
2020/12/15 13:33:20;;;;;;;65.50;35.80;;;;;;;1.58;87.09;100663.41;1759529;81;21172;-80
2020/12/15 13:36:26;;;;;;;54.65;31.35;;;;;;;1.57;87.35;100665.25;1763873;81;21194;-80
2020/12/15 13:39:32;;;;;;;52.70;27.77;;;;;;;1.57;87.36;100673.83;1773377;81;21732;-80
2020/12/15 13:42:39;;;;;;;45.30;25.72;;;;;;;1.50;87.14;100668.85;1774126;81;21284;-80
2020/12/15 13:45:45;;;;;;;46.05;25.43;;;;;;;1.42;87.20;100667.70;1773700;81;21308;-80
2020/12/15 13:48:51;;;;;;;46.37;25.20;;;;;;;1.36;87.44;100676.20;1721557;83;21336;-80
2020/12/15 13:51:57;;;;;;;41.58;24.50;;;;;;;1.33;87.63;100679.99;1722906;83;21642;-80
2020/12/15 13:55:03;;;;;;;48.35;26.02;;;;;;;1.31;87.80;100679.71;1722601;83;21337;-80
2020/12/15 13:58:09;;;;;;;45.88;24.10;;;;;;;1.26;87.91;100688.97;1721700;83;21853;-80
2020/12/15 14:01:15;;;;;;;44.90;24.95;;;;;;;1.20;88.01;100677.29;1721633;83;21360;-80
2020/12/15 14:04:21;;;;;;;47.45;25.95;;;;;;;1.20;88.20;100681.81;1722626;83;21322;-79
2020/12/15 14:07:27;;;;;;;41.77;24.27;;;;;;;1.20;88.39;100681.81;1722589;83;21325;-80
2020/12/15 14:10:33;;;;;;;59.23;30.88;;;;;;;1.22;88.52;100691.54;1722895;83;21328;-80
2020/12/15 14:13:40;;;;;;;61.92;32.88;;;;;;;1.21;88.60;100691.13;1721871;83;21313;-80
2020/12/15 14:16:51;;;;;;;52.05;28.47;;;;;;;1.22;88.70;100683.45;1721903;83;21344;-80
2020/12/15 14:19:57;;;;;;;60.95;31.40;;;;;;;1.20;88.71;100688.06;1723034;83;21213;-80
2020/12/15 14:23:02;;;;;;;53.75;27.95;;;;;;;1.19;88.78;100690.87;1722377;83;21360;-80